createdAt,value
2023-02-12T00:00:27.168Z,96676
2023-02-12T00:03:52.480Z,96677
2023-02-12T00:07:17.517Z,96671
2023-02-12T00:10:42.737Z,96669
2023-02-12T00:14:07.962Z,96665
2023-02-12T00:17:33.119Z,96666
2023-02-12T00:20:58.312Z,96661
2023-02-12T00:24:23.475Z,96661
2023-02-12T00:27:48.709Z,96657
2023-02-12T00:31:14.064Z,96653
2023-02-12T00:34:39.126Z,96653
2023-02-12T00:38:04.350Z,96656
2023-02-12T00:41:29.517Z,96656
2023-02-12T00:44:54.693Z,96662
2023-02-12T00:48:19.925Z,96661
2023-02-12T00:51:45.109Z,96664
2023-02-12T00:55:10.324Z,96671
2023-02-12T00:58:35.579Z,96664
2023-02-12T01:02:00.782Z,96664
2023-02-12T01:05:26.094Z,96667
2023-02-12T01:08:51.172Z,96669
2023-02-12T01:12:16.961Z,96669
2023-02-12T01:15:42.252Z,96664
2023-02-12T01:19:07.362Z,96663
2023-02-12T01:22:32.596Z,96666
2023-02-12T01:25:58.027Z,96661
2023-02-12T01:29:22.977Z,96661
2023-02-12T01:32:48.177Z,96667
2023-02-12T01:36:13.362Z,96664
2023-02-12T01:39:38.570Z,96664
2023-02-12T01:43:03.737Z,96668
2023-02-12T01:46:29.006Z,96663
2023-02-12T01:49:54.129Z,96671
2023-02-12T01:53:19.329Z,96666
2023-02-12T01:56:44.580Z,96669
2023-02-12T02:00:09.736Z,96666
2023-02-12T02:03:35.027Z,96668
2023-02-12T02:07:00.160Z,96678
2023-02-12T02:10:25.356Z,96671
2023-02-12T02:13:50.560Z,96677
2023-02-12T02:17:15.763Z,96673
2023-02-12T02:20:40.995Z,96670
2023-02-12T02:24:06.171Z,96674
2023-02-12T02:27:31.389Z,96676
2023-02-12T02:30:56.589Z,96678
2023-02-12T02:34:21.796Z,96677
2023-02-12T02:37:46.951Z,96675
2023-02-12T02:41:12.151Z,96673
2023-02-12T02:44:37.396Z,96681
2023-02-12T02:48:02.566Z,96677
2023-02-12T02:51:27.798Z,96674
2023-02-12T02:54:52.967Z,96673
2023-02-12T02:58:18.194Z,96678
2023-02-12T03:01:43.397Z,96683
2023-02-12T03:05:08.590Z,96682
2023-02-12T03:08:33.825Z,96679
2023-02-12T03:11:59.065Z,96682
2023-02-12T03:15:24.282Z,96691
2023-02-12T03:18:49.460Z,96682
2023-02-12T03:22:14.668Z,96681
2023-02-12T03:25:39.888Z,96685
2023-02-12T03:29:05.064Z,96685
2023-02-12T03:32:30.265Z,96684
2023-02-12T03:35:55.760Z,96690
2023-02-12T03:39:20.707Z,96693
2023-02-12T03:42:45.987Z,96696
2023-02-12T03:46:11.197Z,96694
2023-02-12T03:49:36.352Z,96698
2023-02-12T03:53:01.532Z,96697
2023-02-12T03:56:26.706Z,96700
2023-02-12T03:59:51.937Z,96698
2023-02-12T04:03:17.087Z,96706
2023-02-12T04:06:42.286Z,96711
2023-02-12T04:10:07.514Z,96713
2023-02-12T04:13:32.742Z,96719
2023-02-12T04:16:58.068Z,96726
2023-02-12T04:20:23.250Z,96727
2023-02-12T04:23:48.448Z,96730
2023-02-12T04:27:13.644Z,96729
2023-02-12T04:30:38.919Z,96732
2023-02-12T04:34:04.083Z,96734
2023-02-12T04:37:29.264Z,96736
2023-02-12T04:40:54.496Z,96730
2023-02-12T04:44:19.691Z,96733
2023-02-12T04:47:44.902Z,96737
2023-02-12T04:51:10.120Z,96739
2023-02-12T04:54:35.300Z,96740
2023-02-12T04:58:00.489Z,96738
2023-02-12T05:01:25.714Z,96743
2023-02-12T05:04:50.896Z,96736
2023-02-12T05:08:16.058Z,96735
2023-02-12T05:11:41.219Z,96736
2023-02-12T05:15:06.398Z,96739
2023-02-12T05:18:31.582Z,96735
2023-02-12T05:21:56.763Z,96739
2023-02-12T05:25:22.004Z,96748
2023-02-12T05:28:47.167Z,96747
2023-02-12T05:32:12.436Z,96752
2023-02-12T05:35:37.573Z,96748
2023-02-12T05:39:02.769Z,96755
2023-02-12T05:42:28.003Z,96752
2023-02-12T05:45:53.616Z,96756
2023-02-12T05:49:18.347Z,96764
2023-02-12T05:52:43.583Z,96762
2023-02-12T05:56:08.802Z,96755
2023-02-12T05:59:34.043Z,96763
2023-02-12T06:02:59.298Z,96770
2023-02-12T06:06:24.365Z,96774
2023-02-12T06:09:49.613Z,96772
2023-02-12T06:13:14.798Z,96775
2023-02-12T06:16:40.087Z,96782
2023-02-12T06:20:05.265Z,96780
2023-02-12T06:23:30.444Z,96789
2023-02-12T06:26:55.658Z,96786
2023-02-12T06:30:20.884Z,96786
2023-02-12T06:33:46.128Z,96792
2023-02-12T06:37:11.304Z,96795
2023-02-12T06:40:36.527Z,96794
2023-02-12T06:44:01.713Z,96793
2023-02-12T06:47:26.916Z,96805
2023-02-12T06:50:52.850Z,96800
2023-02-12T06:54:18.064Z,96799
2023-02-12T06:57:43.267Z,96799
2023-02-12T07:01:08.528Z,96801
2023-02-12T07:04:33.668Z,96801
2023-02-12T07:07:58.893Z,96805
2023-02-12T07:11:24.317Z,96807
2023-02-12T07:14:49.479Z,96812
2023-02-12T07:18:14.633Z,96815
2023-02-12T07:21:39.828Z,96819
2023-02-12T07:25:05.091Z,96828
2023-02-12T07:28:30.323Z,96831
2023-02-12T07:31:55.615Z,96827
2023-02-12T07:35:20.744Z,96829
2023-02-12T07:38:45.985Z,96836
2023-02-12T07:42:11.202Z,96830
2023-02-12T07:45:36.489Z,96832
2023-02-12T07:49:01.639Z,96831
2023-02-12T07:52:26.864Z,96842
2023-02-12T07:55:52.065Z,96840
2023-02-12T07:59:17.352Z,96852
2023-02-12T08:02:42.970Z,96853
2023-02-12T08:06:08.193Z,96848
2023-02-12T08:09:33.354Z,96858
2023-02-12T08:12:58.585Z,96857
2023-02-12T08:16:23.903Z,96854
2023-02-12T08:19:49.072Z,96855
2023-02-12T08:23:14.279Z,96860
2023-02-12T08:26:39.516Z,96867
2023-02-12T08:30:04.716Z,96867
2023-02-12T08:33:29.979Z,96872
2023-02-12T08:36:55.199Z,96878
2023-02-12T08:40:20.362Z,96879
2023-02-12T08:43:45.560Z,96883
2023-02-12T08:47:10.772Z,96885
2023-02-12T08:50:36.055Z,96884
2023-02-12T08:54:01.215Z,96890
2023-02-12T08:57:26.441Z,96892
2023-02-12T09:00:51.690Z,96892
2023-02-12T09:04:16.845Z,96892
2023-02-12T09:07:42.096Z,96900
2023-02-12T09:11:07.295Z,96899
2023-02-12T09:14:32.518Z,96892
2023-02-12T09:17:57.731Z,96889
2023-02-12T09:21:22.950Z,96895
2023-02-12T09:24:48.186Z,96897
2023-02-12T09:28:13.363Z,96892
2023-02-12T09:31:39.046Z,96897
2023-02-12T09:35:04.118Z,96903
2023-02-12T09:38:29.309Z,96910
2023-02-12T09:41:54.533Z,96913
2023-02-12T09:45:19.684Z,96918
2023-02-12T09:48:44.903Z,96919
2023-02-12T09:52:10.102Z,96917
2023-02-12T09:55:35.314Z,96914
2023-02-12T09:59:00.552Z,96917
2023-02-12T10:02:25.692Z,96917
2023-02-12T10:05:50.890Z,96923
2023-02-12T10:09:16.071Z,96927
2023-02-12T10:12:41.252Z,96927
2023-02-12T10:16:06.547Z,96925
2023-02-12T10:19:31.621Z,96930
2023-02-12T10:22:57.477Z,96924
2023-02-12T10:26:21.993Z,96928
2023-02-12T10:29:47.143Z,96930
2023-02-12T10:33:12.351Z,96930
2023-02-12T10:36:37.485Z,96923
2023-02-12T10:40:02.667Z,96922
2023-02-12T10:43:27.866Z,96929
2023-02-12T10:46:53.066Z,96931
2023-02-12T10:50:18.246Z,96936
2023-02-12T10:53:43.504Z,96933
2023-02-12T10:57:08.796Z,96931
2023-02-12T11:00:33.961Z,96932
2023-02-12T11:03:59.140Z,96925
2023-02-12T11:07:24.331Z,96927
2023-02-12T11:10:49.494Z,96926
2023-02-12T11:14:14.667Z,96926
2023-02-12T11:17:39.865Z,96924
2023-02-12T11:21:05.081Z,96919
2023-02-12T11:24:30.266Z,96914
2023-02-12T11:27:55.511Z,96911
2023-02-12T11:31:20.790Z,96920
2023-02-12T11:34:45.833Z,96911
2023-02-12T11:38:11.020Z,96911
2023-02-12T11:41:36.270Z,96915
2023-02-12T11:45:01.404Z,96909
2023-02-12T11:48:26.758Z,96911
2023-02-12T11:51:51.765Z,96913
2023-02-12T11:55:16.940Z,96902
2023-02-12T11:58:42.152Z,96905
2023-02-12T12:02:07.399Z,96905
2023-02-12T12:05:32.498Z,96899
2023-02-12T12:08:57.698Z,96899
2023-02-12T12:12:22.877Z,96895
2023-02-12T12:15:48.054Z,96891
2023-02-12T12:19:13.309Z,96894
2023-02-12T12:22:38.552Z,96885
2023-02-12T12:26:04.374Z,96887
2023-02-12T12:29:29.632Z,96890
2023-02-12T12:32:54.900Z,96893
2023-02-12T12:36:20.067Z,96895
2023-02-12T12:39:45.290Z,96892
2023-02-12T12:43:10.538Z,96891
2023-02-12T12:46:35.752Z,96891
2023-02-12T12:50:00.999Z,96888
2023-02-12T12:53:26.165Z,96890
2023-02-12T12:56:51.388Z,96891
2023-02-12T13:00:18.546Z,96893
2023-02-12T13:03:41.864Z,96894
2023-02-12T13:07:07.053Z,96889
2023-02-12T13:10:32.214Z,96887
2023-02-12T13:13:57.443Z,96890
2023-02-12T13:17:22.637Z,96893
2023-02-12T13:20:47.901Z,96894
2023-02-12T13:24:13.114Z,96890
2023-02-12T13:27:38.303Z,96885
2023-02-12T13:31:05.054Z,96884
2023-02-12T13:34:28.667Z,96886
2023-02-12T13:37:53.837Z,96884
2023-02-12T13:41:19.016Z,96879
2023-02-12T13:44:44.160Z,96874
2023-02-12T13:48:09.327Z,96881
2023-02-12T13:51:34.484Z,96877
2023-02-12T13:54:59.707Z,96870
2023-02-12T13:58:24.890Z,96874
2023-02-12T14:01:50.073Z,96875
2023-02-12T14:05:15.215Z,96881
2023-02-12T14:08:40.376Z,96877
2023-02-12T14:12:05.564Z,96877
2023-02-12T14:15:30.757Z,96882
2023-02-12T14:18:55.888Z,96878
2023-02-12T14:22:21.050Z,96872
2023-02-12T14:25:46.223Z,96871
2023-02-12T14:29:11.396Z,96876
2023-02-12T15:06:01.270Z,96882
2023-02-12T15:09:26.450Z,96885
2023-02-12T15:12:51.638Z,96891
2023-02-12T15:16:16.858Z,96891
2023-02-12T15:19:42.442Z,96891
2023-02-12T15:23:07.735Z,96890
2023-02-12T15:26:32.965Z,96883
2023-02-12T15:29:58.227Z,96881
2023-02-12T15:33:23.434Z,96874
2023-02-12T15:36:48.708Z,96879
2023-02-12T15:40:13.903Z,96871
2023-02-12T15:43:39.034Z,96873
2023-02-12T15:47:04.218Z,96869
2023-02-12T15:50:29.401Z,96870
2023-02-12T15:53:54.574Z,96872
2023-02-12T15:57:19.778Z,96873
2023-02-12T16:00:44.929Z,96869
2023-02-12T16:04:10.133Z,96870
2023-02-12T16:07:35.264Z,96876
2023-02-12T16:11:00.486Z,96879
2023-02-12T16:14:25.718Z,96876
2023-02-12T16:17:50.867Z,96877
2023-02-12T16:21:16.079Z,96875
2023-02-12T16:24:41.261Z,96878
2023-02-12T16:28:07.478Z,96888
2023-02-12T16:31:32.841Z,96891
2023-02-12T16:34:58.190Z,96891
2023-02-12T16:38:23.369Z,96900
2023-02-12T16:41:48.545Z,96900
2023-02-12T16:45:13.758Z,96906
2023-02-12T16:48:38.961Z,96909
2023-02-12T16:52:04.149Z,96909
2023-02-12T16:55:29.345Z,96911
2023-02-12T16:58:54.565Z,96914
2023-02-12T17:02:19.744Z,96915
2023-02-12T17:05:44.962Z,96915
2023-02-12T17:09:10.217Z,96919
2023-02-12T17:12:35.440Z,96918
2023-02-12T17:16:00.885Z,96924
2023-02-12T17:19:26.616Z,96922
2023-02-12T17:22:51.860Z,96925
2023-02-12T17:26:17.059Z,96926
2023-02-12T17:29:42.278Z,96927
2023-02-12T17:33:07.555Z,96927
2023-02-12T17:36:32.787Z,96934
2023-02-12T17:39:58.072Z,96932
2023-02-12T17:43:23.270Z,96935
2023-02-12T17:46:48.835Z,96934
2023-02-12T17:50:17.204Z,96940
2023-02-12T17:53:42.508Z,96935
2023-02-12T17:57:07.783Z,96935
2023-02-12T18:00:33.868Z,96934
2023-02-12T18:03:59.153Z,96932
2023-02-12T18:07:24.585Z,96933
2023-02-12T18:10:49.807Z,96934
2023-02-12T18:14:15.058Z,96931
2023-02-12T18:17:40.249Z,96934
2023-02-12T18:21:05.884Z,96933
2023-02-12T18:24:31.118Z,96928
2023-02-12T18:27:56.389Z,96925
2023-02-12T18:31:21.736Z,96925
2023-02-12T18:34:46.851Z,96925
2023-02-12T18:38:12.115Z,96926
2023-02-12T18:41:37.324Z,96927
2023-02-12T18:45:02.590Z,96925
2023-02-12T18:48:28.508Z,96922
2023-02-12T18:51:53.728Z,96919
2023-02-12T18:55:18.937Z,96912
2023-02-12T18:58:44.181Z,96911
2023-02-12T19:02:09.561Z,96915
2023-02-12T19:05:34.656Z,96910
2023-02-12T19:08:59.866Z,96909
2023-02-12T19:12:25.156Z,96906
2023-02-12T19:15:50.440Z,96908
2023-02-12T19:19:15.628Z,96906
2023-02-12T19:22:40.884Z,96904
2023-02-12T19:26:06.072Z,96903
2023-02-12T19:29:31.300Z,96907
2023-02-12T19:32:56.500Z,96913
2023-02-12T19:36:21.708Z,96911
2023-02-12T19:39:46.993Z,96913
2023-02-12T19:43:12.225Z,96920
2023-02-12T19:46:37.584Z,96919
2023-02-12T19:50:02.738Z,96920
2023-02-12T19:53:28.005Z,96922
2023-02-12T19:56:53.288Z,96933
2023-02-12T20:00:18.502Z,96931
2023-02-12T20:03:43.702Z,96928
2023-02-12T20:07:08.956Z,96926
2023-02-12T20:10:34.246Z,96920
2023-02-12T20:13:59.501Z,96922
2023-02-12T20:17:24.678Z,96920
2023-02-12T20:20:49.926Z,96925
2023-02-12T20:24:15.144Z,96928
2023-02-12T20:27:40.371Z,96923
2023-02-12T20:31:05.704Z,96922
2023-02-12T20:34:34.703Z,96927
2023-02-12T20:37:56.104Z,96930
2023-02-12T20:41:21.327Z,96928
2023-02-12T20:44:46.577Z,96934
2023-02-12T20:48:11.851Z,96937
2023-02-12T20:51:37.060Z,96936
2023-02-12T20:55:02.313Z,96934
2023-02-12T20:58:27.568Z,96935
2023-02-12T21:01:52.809Z,96941
2023-02-12T21:05:18.089Z,96945
2023-02-12T21:08:43.271Z,96942
2023-02-12T21:12:08.446Z,96943
2023-02-12T21:15:33.635Z,96946
2023-02-12T21:18:58.843Z,96940
2023-02-12T21:22:24.036Z,96943
2023-02-12T21:25:49.220Z,96950
2023-02-12T21:29:14.429Z,96955
2023-02-12T21:32:39.594Z,96949
2023-02-12T21:36:04.792Z,96949
2023-02-12T21:39:30.011Z,96949
2023-02-12T21:42:55.138Z,96952
2023-02-12T21:46:20.564Z,96959
2023-02-12T21:49:45.506Z,96955
2023-02-12T21:53:10.711Z,96951
2023-02-12T21:56:35.904Z,96956
2023-02-12T22:00:01.055Z,96956
2023-02-12T22:03:26.235Z,96953
2023-02-12T22:06:51.405Z,96956
2023-02-12T22:10:16.587Z,96953
2023-02-12T22:13:41.837Z,96959
2023-02-12T22:17:06.950Z,96958
2023-02-12T22:20:32.136Z,96955
2023-02-12T22:23:57.307Z,96952
2023-02-12T22:27:22.482Z,96952
2023-02-12T22:30:47.686Z,96956
2023-02-12T22:34:12.856Z,96948
2023-02-12T22:37:38.038Z,96947
2023-02-12T22:41:03.242Z,96948
2023-02-12T22:44:28.430Z,96948
2023-02-12T22:47:53.629Z,96946
2023-02-12T22:51:18.785Z,96954
2023-02-12T22:54:43.957Z,96946
2023-02-12T22:58:09.128Z,96942
2023-02-12T23:01:34.398Z,96949
2023-02-12T23:04:59.521Z,96953
2023-02-12T23:08:24.673Z,96954
2023-02-12T23:11:49.857Z,96954
2023-02-12T23:15:15.036Z,96946
2023-02-12T23:18:40.236Z,96947
2023-02-12T23:22:05.457Z,96945
2023-02-12T23:25:30.615Z,96941
2023-02-12T23:28:56.169Z,96933
2023-02-12T23:32:21.343Z,96934
2023-02-12T23:35:46.532Z,96929
2023-02-12T23:39:11.744Z,96927
2023-02-12T23:42:36.921Z,96931
2023-02-12T23:46:02.131Z,96928
2023-02-12T23:49:27.290Z,96930
2023-02-12T23:52:52.463Z,96928
2023-02-12T23:56:17.673Z,96925
2023-02-12T23:59:42.812Z,96920
